createdAt,value
2019-05-22T00:00:53.841Z,12.50
2019-05-22T00:03:26.235Z,12.50
2019-05-22T00:05:56.395Z,12.60
2019-05-22T00:08:26.130Z,12.60
2019-05-22T00:10:57.248Z,12.70
2019-05-22T00:13:30.977Z,12.70
2019-05-22T00:16:01.868Z,12.70
2019-05-22T00:18:31.546Z,12.70
2019-05-22T00:21:01.115Z,12.60
2019-05-22T00:26:00.994Z,12.60
2019-05-22T00:28:30.462Z,12.70
2019-05-22T00:31:00.099Z,12.60
2019-05-22T00:33:31.245Z,12.60
2019-05-22T00:36:02.127Z,12.60
2019-05-22T00:38:31.527Z,12.70
2019-05-22T00:41:07.664Z,12.60
2019-05-22T00:48:47.748Z,12.60
2019-05-22T00:51:47.528Z,12.80
2019-05-22T00:54:30.106Z,12.90
2019-05-22T00:57:16.799Z,13.00
2019-05-22T00:59:46.258Z,12.90
2019-05-22T01:02:18.757Z,12.90
2019-05-22T01:04:49.242Z,12.90
2019-05-22T01:09:50.520Z,12.80
2019-05-22T01:12:32.217Z,12.90
2019-05-22T01:15:07.871Z,12.70
2019-05-22T01:17:38.053Z,12.70
2019-05-22T01:20:10.306Z,12.70
2019-05-22T01:22:41.772Z,12.60
2019-05-22T01:25:11.435Z,12.60
2019-05-22T01:30:15.463Z,12.80
2019-05-22T01:35:18.809Z,12.70
2019-05-22T01:37:47.631Z,12.80
2019-05-22T01:40:27.368Z,12.80
2019-05-22T01:42:58.843Z,12.80
2019-05-22T01:45:27.683Z,12.80
2019-05-22T01:48:05.274Z,12.80
2019-05-22T01:50:52.854Z,12.80
2019-05-22T01:53:23.887Z,12.90
2019-05-22T01:55:58.366Z,12.90
2019-05-22T01:58:29.722Z,12.90
2019-05-22T02:03:30.265Z,12.90
2019-05-22T02:06:00.737Z,13.00
2019-05-22T02:08:30.479Z,12.90
2019-05-22T02:13:35.495Z,12.80
2019-05-22T02:16:08.084Z,12.90
2019-05-22T02:18:37.878Z,12.80
2019-05-22T02:23:35.628Z,12.80
2019-05-22T02:26:07.026Z,12.80
2019-05-22T02:28:36.874Z,12.80
2019-05-22T02:31:07.363Z,12.80
2019-05-22T02:33:55.451Z,12.70
2019-05-22T02:36:24.822Z,12.70
2019-05-22T02:38:54.773Z,12.80
2019-05-22T02:41:25.997Z,12.90
2019-05-22T02:43:55.751Z,12.60
2019-05-22T02:48:55.870Z,12.70
2019-05-22T02:53:54.856Z,12.60
2019-05-22T02:56:28.088Z,12.70
2019-05-22T02:58:57.791Z,12.80
2019-05-22T03:01:26.780Z,12.80
2019-05-22T03:03:55.752Z,12.80
2019-05-22T03:09:31.070Z,12.80
2019-05-22T03:14:34.525Z,12.60
2019-05-22T03:17:05.153Z,12.60
2019-05-22T03:22:23.524Z,12.40
2019-05-22T03:24:53.435Z,12.40
2019-05-22T03:27:36.371Z,12.50
2019-05-22T03:30:10.290Z,12.50
2019-05-22T03:32:43.747Z,12.50
2019-05-22T03:37:42.922Z,12.50
2019-05-22T03:40:12.570Z,12.50
2019-05-22T03:42:41.368Z,12.50
2019-05-22T03:45:11.185Z,12.50
2019-05-22T03:47:42.280Z,12.60
2019-05-22T03:50:11.763Z,12.50
2019-05-22T03:52:40.557Z,12.50
2019-05-22T03:55:11.014Z,12.50
2019-05-22T04:00:10.780Z,12.50
2019-05-22T04:02:40.058Z,12.60
2019-05-22T04:05:09.993Z,12.70
2019-05-22T04:07:39.002Z,12.70
2019-05-22T04:10:10.429Z,12.70
2019-05-22T04:12:40.076Z,12.70
2019-05-22T04:15:10.228Z,12.70
2019-05-22T04:20:09.033Z,12.80
2019-05-22T04:22:38.835Z,12.80
2019-05-22T04:25:09.139Z,12.80
2019-05-22T04:27:37.838Z,12.80
2019-05-22T04:30:08.234Z,12.80
2019-05-22T04:32:39.616Z,12.80
2019-05-22T04:35:11.272Z,12.80
2019-05-22T04:40:46.135Z,12.80
2019-05-22T04:43:20.123Z,12.80
2019-05-22T04:45:47.529Z,12.80
2019-05-22T04:48:17.115Z,12.80
2019-05-22T04:50:46.258Z,12.80
2019-05-22T04:53:15.036Z,12.90
2019-05-22T04:55:43.728Z,12.90
2019-05-22T04:58:14.152Z,12.90
2019-05-22T05:00:43.251Z,12.90
2019-05-22T05:03:12.751Z,13.20
2019-05-22T05:05:43.472Z,12.90
2019-05-22T05:08:14.081Z,12.90
2019-05-22T05:10:43.986Z,12.90
2019-05-22T05:13:13.143Z,13.00
2019-05-22T05:15:41.902Z,12.90
2019-05-22T05:18:10.602Z,13.00
2019-05-22T05:20:39.309Z,13.00
2019-05-22T05:23:08.115Z,13.00
2019-05-22T05:28:08.074Z,13.00
2019-05-22T05:30:36.855Z,13.00
2019-05-22T05:33:06.050Z,13.00
2019-05-22T05:35:35.123Z,13.00
2019-05-22T05:38:05.199Z,13.10
2019-05-22T05:40:40.176Z,13.00
2019-05-22T05:45:46.662Z,13.00
2019-05-22T05:48:25.766Z,13.00
2019-05-22T05:51:25.471Z,13.00
2019-05-22T05:53:59.641Z,13.00
2019-05-22T05:56:30.147Z,13.00
2019-05-22T05:59:00.229Z,13.00
2019-05-22T06:01:32.565Z,13.00
2019-05-22T06:04:01.881Z,13.00
2019-05-22T06:07:15.817Z,12.90
2019-05-22T06:09:44.600Z,12.90
2019-05-22T06:12:14.447Z,12.80
2019-05-22T06:14:43.180Z,12.90
2019-05-22T06:18:02.067Z,12.80
2019-05-22T06:20:31.125Z,12.80
2019-05-22T06:23:49.837Z,12.80
2019-05-22T06:26:54.765Z,12.80
2019-05-22T06:29:27.750Z,12.80
2019-05-22T06:32:40.908Z,12.90
2019-05-22T06:35:09.805Z,12.90
2019-05-22T06:37:45.571Z,13.00
2019-05-22T06:42:48.148Z,13.00
2019-05-22T06:45:17.667Z,13.00
2019-05-22T06:47:46.729Z,13.00
2019-05-22T06:52:44.319Z,13.20
2019-05-22T06:55:13.691Z,13.20
2019-05-22T06:57:42.775Z,13.30
2019-05-22T07:00:17.964Z,13.20
2019-05-22T07:02:46.982Z,13.20
2019-05-22T07:05:16.150Z,13.20
2019-05-22T07:07:45.348Z,13.20
2019-05-22T07:10:14.538Z,13.20
2019-05-22T07:15:36.640Z,13.30
2019-05-22T07:18:07.228Z,13.30
2019-05-22T07:20:37.983Z,13.40
2019-05-22T07:23:07.849Z,13.40
2019-05-22T07:25:37.370Z,13.50
2019-05-22T07:28:08.017Z,13.50
2019-05-22T07:30:37.185Z,13.50
2019-05-22T07:38:05.608Z,13.50
2019-05-22T07:40:35.631Z,13.60
2019-05-22T07:43:05.445Z,13.50
2019-05-22T07:45:35.044Z,13.50
2019-05-22T07:48:04.626Z,13.60
2019-05-22T07:50:36.572Z,13.50
2019-05-22T07:53:06.167Z,13.50
2019-05-22T07:58:11.878Z,13.50
2019-05-22T08:00:43.711Z,13.50
2019-05-22T08:03:13.606Z,13.40
2019-05-22T08:05:42.701Z,13.50
2019-05-22T08:08:11.949Z,13.60
2019-05-22T08:10:42.218Z,13.60
2019-05-22T08:13:11.323Z,13.70
2019-05-22T08:15:40.303Z,13.70
2019-05-22T08:18:09.558Z,13.80
2019-05-22T08:23:09.458Z,13.80
2019-05-22T08:25:38.638Z,13.90
2019-05-22T08:28:08.213Z,13.90
2019-05-22T08:30:37.348Z,13.90
2019-05-22T08:33:08.046Z,13.90
2019-05-22T08:35:37.149Z,13.90
2019-05-22T08:38:07.986Z,14.00
2019-05-22T08:43:05.865Z,14.10
2019-05-22T08:45:35.721Z,14.10
2019-05-22T08:48:05.431Z,14.20
2019-05-22T08:50:34.717Z,14.10
2019-05-22T08:53:03.879Z,14.00
2019-05-22T08:55:34.638Z,14.10
2019-05-22T08:58:04.207Z,14.10
2019-05-22T09:00:33.422Z,14.10
2019-05-22T09:05:31.651Z,14.20
2019-05-22T09:08:00.758Z,14.10
2019-05-22T09:10:30.004Z,14.00
2019-05-22T09:12:59.203Z,14.20
2019-05-22T09:15:28.911Z,14.20
2019-05-22T09:17:58.731Z,14.20
2019-05-22T09:20:27.791Z,14.30
2019-05-22T09:22:57.512Z,14.40
2019-05-22T09:27:56.015Z,14.40
2019-05-22T09:30:25.176Z,14.30
2019-05-22T09:32:56.052Z,14.20
2019-05-22T09:35:25.956Z,14.20
2019-05-22T09:37:55.256Z,14.30
2019-05-22T09:40:24.412Z,14.40
2019-05-22T09:42:53.828Z,14.40
2019-05-22T09:45:22.950Z,14.50
2019-05-22T09:47:51.919Z,14.60
2019-05-22T09:50:23.029Z,14.80
2019-05-22T09:52:57.695Z,14.80
2019-05-22T09:55:23.409Z,14.90
2019-05-22T09:57:52.793Z,14.80
2019-05-22T10:00:22.176Z,14.80
2019-05-22T10:02:51.119Z,14.70
2019-05-22T10:05:21.767Z,14.80
2019-05-22T10:10:21.143Z,14.80
2019-05-22T10:12:50.691Z,14.80
2019-05-22T10:15:21.059Z,14.80
2019-05-22T10:17:50.668Z,14.90
2019-05-22T10:20:20.831Z,14.80
2019-05-22T10:22:50.421Z,14.90
2019-05-22T10:25:19.809Z,14.90
2019-05-22T10:27:49.730Z,15.00
2019-05-22T10:32:48.270Z,15.00
2019-05-22T10:35:18.083Z,15.00
2019-05-22T10:37:47.482Z,15.00
2019-05-22T10:40:16.652Z,15.00
2019-05-22T10:42:46.491Z,15.00
2019-05-22T10:45:15.583Z,15.00
2019-05-22T10:47:45.192Z,15.10
2019-05-22T10:50:14.998Z,15.00
2019-05-22T10:55:13.004Z,15.10
2019-05-22T10:57:43.460Z,15.10
2019-05-22T11:00:15.133Z,15.00
2019-05-22T11:07:21.501Z,15.00
2019-05-22T11:49:19.595Z,14.90
2019-05-22T11:56:32.188Z,15.10
2019-05-22T12:03:08.593Z,15.20
2019-05-22T12:08:57.030Z,15.10
2019-05-22T12:13:54.298Z,15.20
2019-05-22T12:16:23.098Z,15.20
2019-05-22T12:18:52.183Z,15.30
2019-05-22T12:21:20.903Z,15.30
2019-05-22T12:23:49.742Z,15.40
2019-05-22T12:26:18.462Z,15.40
2019-05-22T12:28:47.182Z,15.40
2019-05-22T12:33:44.631Z,15.50
2019-05-22T12:36:13.885Z,15.40
2019-05-22T12:38:43.329Z,15.50
2019-05-22T12:41:14.023Z,15.50
2019-05-22T12:43:44.928Z,15.50
2019-05-22T12:46:13.270Z,15.50
2019-05-22T12:48:42.619Z,15.30
2019-05-22T12:51:11.379Z,15.30
2019-05-22T12:56:08.578Z,15.40
2019-05-22T12:58:40.108Z,15.40
2019-05-22T13:01:15.780Z,15.40
2019-05-22T13:03:44.892Z,15.50
2019-05-22T13:06:13.668Z,15.50
2019-05-22T13:08:42.815Z,15.50
2019-05-22T13:11:12.699Z,15.50
2019-05-22T13:13:41.775Z,15.50
2019-05-22T13:18:39.290Z,15.50
2019-05-22T13:21:09.423Z,15.50
2019-05-22T13:23:39.305Z,15.60
2019-05-22T13:26:08.063Z,15.60
2019-05-22T13:28:37.506Z,15.50
2019-05-22T13:31:07.373Z,15.50
2019-05-22T13:33:37.776Z,15.50
2019-05-22T13:38:35.512Z,15.50
2019-05-22T13:41:04.494Z,15.50
2019-05-22T13:43:33.877Z,15.50
2019-05-22T13:46:02.655Z,15.50
2019-05-22T13:48:31.636Z,15.50
2019-05-22T13:51:00.437Z,15.60
2019-05-22T13:53:29.576Z,15.60
2019-05-22T13:55:58.514Z,15.70
2019-05-22T14:00:56.505Z,15.70
2019-05-22T14:03:25.670Z,15.70
2019-05-22T14:05:55.358Z,15.80
2019-05-22T14:10:52.801Z,15.80
2019-05-22T14:13:21.892Z,15.80
2019-05-22T14:15:56.545Z,15.90
2019-05-22T14:20:49.991Z,16.00
2019-05-22T14:23:19.294Z,16.00
2019-05-22T14:25:49.582Z,16.00
2019-05-22T14:28:19.264Z,15.90
2019-05-22T14:30:49.135Z,15.90
2019-05-22T14:33:18.031Z,15.90
2019-05-22T14:35:49.319Z,16.00
2019-05-22T14:38:17.539Z,15.90
2019-05-22T14:43:14.571Z,15.80
2019-05-22T14:45:43.517Z,15.80
2019-05-22T14:48:12.936Z,15.80
2019-05-22T14:50:42.703Z,15.80
2019-05-22T14:53:11.516Z,16.00
2019-05-22T14:55:40.797Z,15.90
2019-05-22T14:58:09.930Z,15.90
2019-05-22T15:03:07.482Z,15.90
2019-05-22T15:05:36.247Z,15.90
2019-05-22T15:08:06.049Z,15.90
2019-05-22T15:10:35.983Z,15.80
2019-05-22T15:13:05.185Z,15.80
2019-05-22T15:15:33.992Z,15.80
2019-05-22T15:18:03.864Z,15.70
2019-05-22T15:20:37.649Z,15.60
2019-05-22T15:47:52.467Z,15.50
2019-05-22T15:50:06.168Z,15.40
2019-05-22T15:52:35.081Z,15.50
2019-05-22T15:57:37.843Z,15.40
2019-05-22T16:00:08.424Z,15.30
2019-05-22T16:02:38.789Z,15.30
2019-05-22T16:05:07.589Z,15.30
2019-05-22T16:07:37.283Z,15.30
2019-05-22T16:10:06.699Z,15.40
2019-05-22T16:12:35.675Z,15.40
2019-05-22T16:20:04.882Z,15.40
2019-05-22T16:22:33.919Z,15.40
2019-05-22T16:25:03.467Z,15.50
2019-05-22T16:27:32.871Z,15.50
2019-05-22T16:30:02.223Z,15.50
2019-05-22T16:32:31.616Z,15.00
2019-05-22T16:35:00.587Z,15.50
2019-05-22T16:39:57.702Z,15.50
2019-05-22T16:42:27.161Z,15.60
2019-05-22T16:44:55.996Z,15.70
2019-05-22T16:47:24.887Z,15.60
2019-05-22T16:49:54.439Z,15.70
2019-05-22T16:52:24.477Z,15.60
2019-05-22T16:54:53.286Z,15.60
2019-05-22T16:59:51.064Z,15.60
2019-05-22T17:02:20.087Z,15.70
2019-05-22T17:04:49.067Z,15.70
2019-05-22T17:07:18.184Z,15.70
2019-05-22T17:09:48.082Z,15.70
2019-05-22T17:12:18.168Z,15.70
2019-05-22T17:14:47.298Z,15.70
2019-05-22T17:17:17.546Z,15.70
2019-05-22T17:22:16.254Z,15.80
2019-05-22T17:24:45.020Z,15.80
2019-05-22T17:27:15.284Z,15.70
2019-05-22T17:29:45.268Z,15.70
2019-05-22T17:32:14.931Z,15.70
2019-05-22T17:34:43.947Z,15.70
2019-05-22T17:37:15.749Z,15.60
2019-05-22T17:42:15.370Z,15.70
2019-05-22T17:44:45.767Z,15.70
2019-05-22T17:47:14.544Z,15.60
2019-05-22T17:49:43.287Z,15.60
2019-05-22T17:52:12.607Z,15.50
2019-05-22T17:54:41.973Z,15.50
2019-05-22T17:57:11.496Z,15.40
2019-05-22T17:59:40.994Z,15.40
2019-05-22T18:04:40.216Z,15.30
2019-05-22T18:07:09.340Z,15.30
2019-05-22T18:09:38.323Z,15.20
2019-05-22T18:12:09.291Z,15.30
2019-05-22T18:14:38.849Z,15.20
2019-05-22T18:17:07.675Z,15.20
2019-05-22T18:19:36.593Z,15.10
2019-05-22T18:24:34.903Z,15.00
2019-05-22T18:29:31.986Z,14.80
2019-05-22T18:32:01.051Z,14.80
2019-05-22T18:34:29.854Z,14.80
2019-05-22T18:36:58.568Z,14.90
2019-05-22T18:39:27.383Z,14.90
2019-05-22T18:44:24.560Z,14.80
2019-05-22T18:46:53.359Z,14.80
2019-05-22T18:49:22.123Z,14.80
2019-05-22T18:51:50.898Z,14.80
2019-05-22T18:54:19.707Z,14.80
2019-05-22T18:56:48.523Z,14.80
2019-05-22T18:59:17.227Z,14.80
2019-05-22T19:01:46.034Z,14.80
2019-05-22T19:06:43.457Z,14.80
2019-05-22T19:09:14.753Z,14.90
2019-05-22T19:11:43.647Z,14.90
2019-05-22T19:14:12.591Z,14.80
2019-05-22T19:16:41.396Z,14.70
2019-05-22T19:19:11.155Z,14.60
2019-05-22T19:21:45.783Z,14.60
2019-05-22T19:24:15.694Z,14.50
2019-05-22T19:29:13.026Z,14.50
2019-05-22T19:31:41.823Z,14.50
2019-05-22T19:34:13.676Z,14.60
2019-05-22T19:36:42.379Z,14.60
2019-05-22T19:39:11.190Z,14.70
2019-05-22T19:41:42.294Z,14.60
2019-05-22T19:44:11.434Z,14.60
2019-05-22T19:46:40.228Z,14.50
2019-05-22T19:51:39.515Z,14.50
2019-05-22T19:54:09.161Z,14.50
2019-05-22T19:56:39.191Z,14.50
2019-05-22T19:59:08.598Z,14.50
2019-05-22T20:01:37.667Z,14.50
2019-05-22T20:04:06.773Z,14.40
2019-05-22T20:06:38.256Z,14.40
2019-05-22T20:09:08.993Z,14.40
2019-05-22T20:16:35.575Z,14.40
2019-05-22T20:19:04.899Z,14.40
2019-05-22T20:21:34.752Z,14.40
2019-05-22T20:24:04.035Z,14.40
2019-05-22T20:26:32.807Z,14.40
2019-05-22T20:29:01.970Z,14.40
2019-05-22T20:31:31.819Z,14.30
2019-05-22T20:36:31.011Z,14.40
2019-05-22T20:38:59.859Z,14.40
2019-05-22T20:41:30.042Z,14.40
2019-05-22T20:43:59.693Z,14.30
2019-05-22T20:46:30.747Z,14.40
2019-05-22T20:49:00.917Z,14.40
2019-05-22T20:51:30.987Z,14.40
2019-05-22T20:54:01.001Z,14.30
2019-05-22T20:58:59.511Z,14.00
2019-05-22T21:01:28.332Z,14.30
2019-05-22T21:03:57.417Z,14.30
2019-05-22T21:06:26.772Z,14.30
2019-05-22T21:08:57.551Z,14.20
2019-05-22T21:11:27.367Z,14.20
2019-05-22T21:13:56.323Z,14.20
2019-05-22T21:18:57.162Z,14.20
2019-05-22T21:21:26.374Z,14.20
2019-05-22T21:24:09.607Z,14.10
2019-05-22T21:26:26.069Z,14.10
2019-05-22T21:28:55.707Z,14.20
2019-05-22T21:31:25.471Z,14.20
2019-05-22T21:33:55.824Z,14.20
2019-05-22T21:36:25.314Z,14.20
2019-05-22T21:41:23.058Z,14.20
2019-05-22T21:43:52.784Z,14.20
2019-05-22T21:46:21.904Z,14.20
2019-05-22T21:48:53.393Z,14.20
2019-05-22T21:51:24.000Z,14.20
2019-05-22T21:53:54.130Z,14.20
2019-05-22T21:56:23.662Z,14.20
2019-05-22T21:58:52.640Z,14.10
2019-05-22T22:04:20.890Z,14.10
2019-05-22T22:06:50.081Z,14.10
2019-05-22T22:09:20.734Z,14.10
2019-05-22T22:11:49.979Z,14.00
2019-05-22T22:14:19.337Z,14.00
2019-05-22T22:16:55.467Z,14.00
2019-05-22T22:19:23.855Z,14.00
2019-05-22T22:21:54.298Z,13.90
2019-05-22T22:24:24.791Z,13.20
2019-05-22T22:29:26.176Z,13.70
2019-05-22T22:31:59.609Z,13.70
2019-05-22T22:34:44.551Z,13.60
2019-05-22T22:37:14.392Z,13.60
2019-05-22T22:39:47.616Z,13.60
2019-05-22T22:42:18.116Z,13.60
2019-05-22T22:44:49.182Z,13.60
2019-05-22T22:47:22.455Z,13.60
2019-05-22T22:49:52.202Z,13.60
2019-05-22T22:54:51.283Z,13.50
2019-05-22T22:57:20.703Z,13.50
2019-05-22T22:59:50.578Z,13.50
2019-05-22T23:02:28.635Z,13.50
2019-05-22T23:04:57.817Z,13.50
2019-05-22T23:07:26.843Z,13.50
2019-05-22T23:09:58.834Z,13.50
2019-05-22T23:12:28.796Z,13.40
2019-05-22T23:17:31.511Z,13.50
2019-05-22T23:19:59.880Z,13.40
2019-05-22T23:22:32.640Z,13.50
2019-05-22T23:25:03.368Z,13.40
2019-05-22T23:27:33.119Z,13.40
2019-05-22T23:30:02.891Z,13.50
2019-05-22T23:32:33.204Z,13.40
2019-05-22T23:35:03.071Z,13.40
2019-05-22T23:40:01.492Z,13.40
2019-05-22T23:45:16.947Z,13.50
2019-05-22T23:48:02.350Z,13.50
2019-05-22T23:50:32.265Z,13.50
2019-05-22T23:53:05.626Z,13.50
2019-05-22T23:55:35.461Z,13.50
2019-05-22T23:58:05.845Z,13.50
